Time;durP1;ratioP1;P1;durP2;ratioP2;P2;SDS_P1;SDS_P2;PMS_P1;PMS_P2;Temp;Humidity;BMP_temperature;BMP_pressure;BME280_temperature;BME280_humidity;BME280_pressure;Samples;Min_cycle;Max_cycle;Signal;HPM_P1;HPM_P2
2022/04/13 00:00:13;;;;;;;;;;;12.10;97.90;;;;;;5046062;28;20373;-85
2022/04/13 00:02:38;;;;;;;;;;;12.10;97.90;;;;;;5045207;28;19952;-85
2022/04/13 00:05:05;;;;;;;;;;;12.10;98.30;;;;;;5069866;28;19919;-85
2022/04/13 00:07:30;;;;;;;;;;;12.10;98.80;;;;;;5071320;28;19913;-85
2022/04/13 00:09:57;;;;;;;;;;;12.10;99.30;;;;;;5055339;28;19916;-86
2022/04/13 00:12:23;;;;;;;;;;;12.00;99.80;;;;;;5066612;28;19924;-84
2022/04/13 00:14:48;;;;;;;;;;;12.00;99.90;;;;;;5066859;28;19919;-85
2022/04/13 00:17:14;;;;;;;;;;;12.00;99.90;;;;;;5065892;28;19917;-85
2022/04/13 00:19:39;;;;;;;;;;;12.00;99.90;;;;;;5056007;28;19920;-85
2022/04/13 00:22:05;;;;;;;;;;;12.00;99.90;;;;;;5058306;28;19924;-85
2022/04/13 00:24:31;;;;;;;;;;;11.90;99.90;;;;;;5070196;28;20007;-85
2022/04/13 00:26:57;;;;;;;;;;;11.90;99.90;;;;;;5073758;28;20324;-86
2022/04/13 00:29:29;;;;;;;;;;;11.90;99.90;;;;;;5055437;28;19927;-84
2022/04/13 00:31:56;;;;;;;;;;;11.80;99.90;;;;;;5066940;28;19913;-86
2022/04/13 00:34:22;;;;;;;;;;;11.80;99.90;;;;;;5064159;28;19930;-86
2022/04/13 00:36:47;;;;;;;;;;;11.80;99.90;;;;;;5085270;28;19991;-85
2022/04/13 00:39:13;;;;;;;;;;;11.70;99.90;;;;;;5062476;28;19917;-85
2022/04/13 00:41:38;;;;;;;;;;;11.70;99.90;;;;;;5045702;28;19916;-86
2022/04/13 00:44:05;;;;;;;;;;;11.70;99.90;;;;;;5069971;28;19938;-85
2022/04/13 00:46:32;;;;;;;;;;;11.60;99.90;;;;;;5070306;28;20604;-85
2022/04/13 00:48:59;;;;;;;;;;;11.70;99.90;;;;;;5061902;28;19951;-85
2022/04/13 00:51:24;;;;;;;;;;;11.70;99.90;;;;;;5070676;28;19962;-85
2022/04/13 00:53:51;;;;;;;;;;;11.70;99.90;;;;;;5062148;28;19913;-85
2022/04/13 00:56:20;;;;;;;;;;;11.70;99.90;;;;;;5061333;28;20297;-85
2022/04/13 00:58:47;;;;;;;;;;;11.70;99.90;;;;;;5058296;28;19916;-85
2022/04/13 01:01:12;;;;;;;;;;;11.70;99.90;;;;;;5045254;28;19917;-86
2022/04/13 01:03:38;;;;;;;;;;;11.60;99.90;;;;;;5055511;28;20278;-85
2022/04/13 01:06:05;;;;;;;;;;;11.70;99.90;;;;;;5070416;28;19924;-85
2022/04/13 01:08:31;;;;;;;;;;;11.60;99.90;;;;;;5041360;28;19943;-85
2022/04/13 01:10:58;;;;;;;;;;;11.60;99.90;;;;;;5070572;28;19913;-85
2022/04/13 01:13:23;;;;;;;;;;;11.60;99.90;;;;;;5062016;28;19913;-85
2022/04/13 01:15:49;;;;;;;;;;;11.60;99.90;;;;;;5071042;28;19935;-86
2022/04/13 01:18:18;;;;;;;;;;;11.60;99.90;;;;;;5071212;28;20003;-85
2022/04/13 01:20:53;;;;;;;;;;;11.60;99.90;;;;;;5070845;28;19921;-85
2022/04/13 01:23:19;;;;;;;;;;;11.60;99.90;;;;;;5058609;28;19963;-85
2022/04/13 01:25:52;;;;;;;;;;;11.60;99.90;;;;;;5069873;28;19916;-86
2022/04/13 01:28:18;;;;;;;;;;;11.60;99.90;;;;;;5046987;28;19920;-86
2022/04/13 01:30:43;;;;;;;;;;;11.70;99.90;;;;;;5075057;28;19920;-85
2022/04/13 01:33:09;;;;;;;;;;;11.70;99.90;;;;;;5076297;28;19917;-86
2022/04/13 01:35:35;;;;;;;;;;;11.70;99.90;;;;;;5076344;28;20387;-85
2022/04/13 01:38:00;;;;;;;;;;;11.70;99.90;;;;;;5062874;28;19967;-86
2022/04/13 01:40:26;;;;;;;;;;;11.70;99.90;;;;;;5061338;28;19913;-85
2022/04/13 01:42:51;;;;;;;;;;;11.60;99.90;;;;;;5076012;28;19959;-86
2022/04/13 01:45:20;;;;;;;;;;;11.60;99.90;;;;;;5052330;28;19920;-85
2022/04/13 01:47:49;;;;;;;;;;;11.50;99.90;;;;;;5080634;23;20033;-82
2022/04/13 01:50:19;;;;;;;;;;;11.50;99.90;;;;;;5071575;28;19982;-82
2022/04/13 01:52:45;;;;;;;;;;;11.40;99.90;;;;;;5071185;28;19916;-82
2022/04/13 01:55:11;;;;;;;;;;;11.40;99.90;;;;;;5089124;28;20444;-82
2022/04/13 01:57:37;;;;;;;;;;;11.40;99.90;;;;;;5086586;28;19916;-82
2022/04/13 02:00:04;;;;;;;;;;;11.30;99.90;;;;;;5080497;28;20019;-82
2022/04/13 02:02:29;;;;;;;;;;;11.30;99.90;;;;;;5063380;28;19994;-82
2022/04/13 02:04:55;;;;;;;;;;;11.20;99.90;;;;;;5067168;28;19975;-82
2022/04/13 02:07:20;;;;;;;;;;;11.10;99.90;;;;;;5073310;28;19962;-82
2022/04/13 02:09:46;;;;;;;;;;;11.00;99.90;;;;;;5082641;28;19991;-82
2022/04/13 02:12:12;;;;;;;;;;;10.90;99.90;;;;;;5078776;28;19916;-82
2022/04/13 02:14:37;;;;;;;;;;;10.80;99.90;;;;;;5063516;28;20593;-82
2022/04/13 02:17:03;;;;;;;;;;;10.70;99.90;;;;;;5081079;28;19916;-82
2022/04/13 02:19:28;;;;;;;;;;;10.60;99.90;;;;;;5075127;28;19916;-82
2022/04/13 02:21:54;;;;;;;;;;;10.60;99.90;;;;;;5073747;28;20020;-82
2022/04/13 02:24:19;;;;;;;;;;;10.50;99.90;;;;;;5076501;28;19916;-82
2022/04/13 02:26:45;;;;;;;;;;;10.40;99.90;;;;;;5074339;28;19919;-82
2022/04/13 02:29:10;;;;;;;;;;;10.40;99.90;;;;;;5063048;28;20383;-82
2022/04/13 02:31:36;;;;;;;;;;;10.40;99.90;;;;;;5081077;28;19916;-82
2022/04/13 02:34:04;;;;;;;;;;;10.30;99.90;;;;;;5075047;28;20391;-82
2022/04/13 02:36:32;;;;;;;;;;;10.40;99.90;;;;;;5089982;28;19972;-82
2022/04/13 02:38:58;;;;;;;;;;;10.30;99.90;;;;;;5087652;28;19912;-82
2022/04/13 02:41:24;;;;;;;;;;;10.40;99.90;;;;;;5075462;28;19924;-82
2022/04/13 02:43:49;;;;;;;;;;;10.40;99.90;;;;;;5061688;28;20294;-82
2022/04/13 02:46:15;;;;;;;;;;;10.40;99.90;;;;;;5062197;28;19923;-82
2022/04/13 02:48:40;;;;;;;;;;;10.40;99.90;;;;;;5085846;28;19927;-82
2022/04/13 02:51:06;;;;;;;;;;;10.40;99.90;;;;;;5067030;28;19924;-82
2022/04/13 02:53:31;;;;;;;;;;;10.40;99.90;;;;;;5063556;28;20394;-82
2022/04/13 02:55:57;;;;;;;;;;;10.40;99.90;;;;;;5080210;28;20004;-82
2022/04/13 02:58:23;;;;;;;;;;;10.40;99.90;;;;;;5079667;28;20282;-82
2022/04/13 03:00:48;;;;;;;;;;;10.40;99.90;;;;;;5062183;28;19916;-82
2022/04/13 03:03:14;;;;;;;;;;;10.40;99.90;;;;;;5089417;28;19920;-82
2022/04/13 03:05:39;;;;;;;;;;;10.40;99.90;;;;;;5067398;28;19916;-82
2022/04/13 03:08:06;;;;;;;;;;;10.40;99.90;;;;;;5061217;28;20019;-82
2022/04/13 03:10:31;;;;;;;;;;;10.40;99.90;;;;;;5085939;28;19912;-82
2022/04/13 03:12:57;;;;;;;;;;;10.40;99.90;;;;;;5060115;28;19969;-81
2022/04/13 03:15:25;;;;;;;;;;;10.40;99.90;;;;;;5070881;28;19931;-82
2022/04/13 03:17:51;;;;;;;;;;;10.40;99.90;;;;;;5083049;28;19966;-82
2022/04/13 03:20:16;;;;;;;;;;;10.40;99.90;;;;;;5072371;28;19913;-82
2022/04/13 03:22:42;;;;;;;;;;;10.40;99.90;;;;;;5062871;28;19917;-82
2022/04/13 03:25:08;;;;;;;;;;;10.30;99.90;;;;;;5054887;28;20003;-82
2022/04/13 03:27:34;;;;;;;;;;;10.30;99.90;;;;;;5072563;28;20042;-82
2022/04/13 03:29:59;;;;;;;;;;;10.30;99.90;;;;;;5077954;28;20549;-82
2022/04/13 03:32:25;;;;;;;;;;;10.30;99.90;;;;;;5072595;28;19913;-82
2022/04/13 03:34:50;;;;;;;;;;;10.30;99.90;;;;;;5090309;28;19924;-82
2022/04/13 03:37:16;;;;;;;;;;;10.30;99.90;;;;;;5067819;28;20275;-82
2022/04/13 03:39:41;;;;;;;;;;;10.30;99.90;;;;;;5067499;28;20221;-83
2022/04/13 03:42:07;;;;;;;;;;;10.30;99.90;;;;;;5062436;28;19924;-82
2022/04/13 03:44:33;;;;;;;;;;;10.30;99.90;;;;;;5077482;28;20274;-82
2022/04/13 03:46:58;;;;;;;;;;;10.30;99.90;;;;;;5073414;28;19912;-82
2022/04/13 03:49:24;;;;;;;;;;;10.30;99.90;;;;;;5062285;28;19928;-82
2022/04/13 03:51:49;;;;;;;;;;;10.20;99.90;;;;;;5089681;28;19919;-83
2022/04/13 03:54:15;;;;;;;;;;;10.20;99.90;;;;;;5072650;28;19986;-82
2022/04/13 03:56:41;;;;;;;;;;;10.10;99.90;;;;;;5061468;28;19920;-82
2022/04/13 03:59:09;;;;;;;;;;;10.10;99.90;;;;;;5079944;28;20285;-82
2022/04/13 04:01:35;;;;;;;;;;;10.10;99.90;;;;;;5063013;28;19921;-82
2022/04/13 04:04:01;;;;;;;;;;;10.00;99.90;;;;;;5070967;28;19926;-82
2022/04/13 04:06:26;;;;;;;;;;;10.00;99.90;;;;;;5061358;28;19962;-82
2022/04/13 04:08:52;;;;;;;;;;;10.00;99.90;;;;;;5053886;28;19931;-82
2022/04/13 04:11:17;;;;;;;;;;;9.90;99.90;;;;;;5072562;28;19916;-82
2022/04/13 04:13:43;;;;;;;;;;;9.90;99.90;;;;;;5061904;28;20272;-82
2022/04/13 04:16:08;;;;;;;;;;;9.90;99.90;;;;;;5085995;28;20294;-82
2022/04/13 04:18:34;;;;;;;;;;;9.90;99.90;;;;;;5068962;28;20437;-82
2022/04/13 04:21:00;;;;;;;;;;;9.90;99.90;;;;;;5073339;28;19916;-82
2022/04/13 04:23:25;;;;;;;;;;;9.90;99.90;;;;;;5076784;28;20002;-82
2022/04/13 04:25:51;;;;;;;;;;;9.90;99.90;;;;;;5056318;28;19916;-82
2022/04/13 04:28:16;;;;;;;;;;;9.80;99.90;;;;;;5060792;28;19920;-82
2022/04/13 04:30:42;;;;;;;;;;;9.80;99.90;;;;;;5053458;28;20142;-83
2022/04/13 04:33:09;;;;;;;;;;;9.70;99.90;;;;;;5077324;28;19912;-82
2022/04/13 04:35:35;;;;;;;;;;;9.70;99.90;;;;;;5086401;28;19928;-82
2022/04/13 04:38:01;;;;;;;;;;;9.70;99.90;;;;;;5062607;28;20003;-83
2022/04/13 04:40:27;;;;;;;;;;;9.60;99.90;;;;;;5068174;28;19917;-82
2022/04/13 04:42:52;;;;;;;;;;;9.60;99.90;;;;;;5056586;28;20054;-82
2022/04/13 04:45:19;;;;;;;;;;;9.60;99.90;;;;;;5066395;28;19917;-82
2022/04/13 04:47:45;;;;;;;;;;;9.60;99.90;;;;;;5072321;28;19976;-82
2022/04/13 04:50:11;;;;;;;;;;;9.60;99.90;;;;;;5086334;28;19916;-83
2022/04/13 04:52:43;;;;;;;;;;;9.60;99.90;;;;;;5085866;28;20290;-82
2022/04/13 04:55:09;;;;;;;;;;;9.50;99.90;;;;;;5056596;28;19927;-82
2022/04/13 04:57:34;;;;;;;;;;;9.50;99.90;;;;;;5070924;28;20236;-82
2022/04/13 05:00:00;;;;;;;;;;;9.50;99.90;;;;;;5062328;28;19916;-82
2022/04/13 05:02:25;;;;;;;;;;;9.60;99.90;;;;;;5079572;28;19912;-82
2022/04/13 05:04:51;;;;;;;;;;;9.60;99.90;;;;;;5064509;28;19916;-83
2022/04/13 05:07:16;;;;;;;;;;;9.60;99.90;;;;;;5058516;28;19916;-82
2022/04/13 05:09:42;;;;;;;;;;;9.60;99.90;;;;;;5068675;28;19935;-82
2022/04/13 05:12:08;;;;;;;;;;;9.60;99.90;;;;;;5059748;28;19939;-82
2022/04/13 05:14:34;;;;;;;;;;;9.70;99.90;;;;;;5077994;28;19928;-82
2022/04/13 05:16:59;;;;;;;;;;;9.70;99.90;;;;;;5054139;28;19917;-82
2022/04/13 05:19:25;;;;;;;;;;;9.80;99.90;;;;;;5081168;28;20002;-82
2022/04/13 05:21:50;;;;;;;;;;;9.80;99.90;;;;;;5087080;28;19916;-82
2022/04/13 05:24:16;;;;;;;;;;;9.80;99.90;;;;;;5070792;28;19971;-82
2022/04/13 05:26:41;;;;;;;;;;;9.90;99.90;;;;;;5058674;28;19924;-82
2022/04/13 05:29:07;;;;;;;;;;;10.00;99.90;;;;;;5063386;28;19916;-82
2022/04/13 05:31:32;;;;;;;;;;;10.00;99.90;;;;;;5060303;28;19966;-82
2022/04/13 05:33:58;;;;;;;;;;;10.10;99.90;;;;;;5072282;28;19920;-82
2022/04/13 05:36:23;;;;;;;;;;;10.30;99.90;;;;;;5066450;28;20341;-83
2022/04/13 05:38:49;;;;;;;;;;;10.40;99.90;;;;;;5061302;28;20398;-82
2022/04/13 05:41:15;;;;;;;;;;;10.60;99.90;;;;;;5087315;28;19981;-82
2022/04/13 05:43:40;;;;;;;;;;;10.70;99.90;;;;;;5057608;28;19924;-82
2022/04/13 05:46:06;;;;;;;;;;;10.90;99.90;;;;;;5072081;28;20321;-83
2022/04/13 05:48:31;;;;;;;;;;;11.10;99.90;;;;;;5064072;28;19970;-82
2022/04/13 05:50:59;;;;;;;;;;;11.10;99.90;;;;;;5072044;28;20355;-82
2022/04/13 05:53:24;;;;;;;;;;;11.30;99.90;;;;;;5068187;28;19920;-83
2022/04/13 05:55:55;;;;;;;;;;;11.40;99.90;;;;;;5072297;28;19924;-83
2022/04/13 05:58:25;;;;;;;;;;;11.50;99.90;;;;;;5088288;28;20065;-83
2022/04/13 06:00:50;;;;;;;;;;;11.50;99.90;;;;;;5085594;28;19990;-82
2022/04/13 06:03:17;;;;;;;;;;;11.60;99.90;;;;;;5084578;28;20398;-82
2022/04/13 06:05:43;;;;;;;;;;;11.60;99.90;;;;;;5079061;28;19919;-82
2022/04/13 06:08:08;;;;;;;;;;;11.60;99.90;;;;;;5066447;28;20923;-82
2022/04/13 06:10:34;;;;;;;;;;;11.60;99.90;;;;;;5071442;28;20382;-82
2022/04/13 06:12:59;;;;;;;;;;;11.50;99.90;;;;;;5074769;28;20375;-82
2022/04/13 06:15:25;;;;;;;;;;;11.30;99.90;;;;;;5071900;28;19928;-82
2022/04/13 06:17:50;;;;;;;;;;;11.10;99.90;;;;;;5062580;28;20361;-82
2022/04/13 06:20:16;;;;;;;;;;;10.90;99.90;;;;;;5085326;28;20275;-83
2022/04/13 06:22:42;;;;;;;;;;;10.90;99.90;;;;;;5062517;28;19923;-82
2022/04/13 06:25:09;;;;;;;;;;;10.90;99.90;;;;;;5091252;28;20282;-82
2022/04/13 06:27:38;;;;;;;;;;;11.00;99.90;;;;;;5063736;28;19943;-82
2022/04/13 06:30:04;;;;;;;;;;;11.00;99.90;;;;;;5080651;28;20322;-82
2022/04/13 06:32:56;;;;;;;;;;;11.10;99.90;;;;;;5071434;28;19916;-82
2022/04/13 06:35:23;;;;;;;;;;;11.10;99.90;;;;;;5085424;28;19980;-82
2022/04/13 06:37:48;;;;;;;;;;;11.20;99.90;;;;;;5072435;28;19924;-81
2022/04/13 06:40:14;;;;;;;;;;;11.30;99.90;;;;;;5063476;28;20306;-82
2022/04/13 06:42:40;;;;;;;;;;;11.50;99.90;;;;;;5077006;28;19912;-82
2022/04/13 06:45:07;;;;;;;;;;;11.60;99.90;;;;;;5090135;28;19957;-82
2022/04/13 06:47:32;;;;;;;;;;;11.80;99.90;;;;;;5089947;28;19924;-82
2022/04/13 06:49:58;;;;;;;;;;;12.00;99.90;;;;;;5069224;28;19916;-82
2022/04/13 06:52:24;;;;;;;;;;;12.10;99.90;;;;;;5059422;28;19969;-82
2022/04/13 06:54:49;;;;;;;;;;;12.30;99.20;;;;;;5082773;28;19921;-82
2022/04/13 06:57:15;;;;;;;;;;;12.50;97.90;;;;;;5073462;28;19928;-82
2022/04/13 06:59:40;;;;;;;;;;;12.70;97.40;;;;;;5061728;28;19916;-81
2022/04/13 07:02:12;;;;;;;;;;;12.80;96.90;;;;;;5081437;28;20003;-82
2022/04/13 07:04:38;;;;;;;;;;;12.90;96.80;;;;;;5084897;28;19958;-82
2022/04/13 07:07:04;;;;;;;;;;;13.10;96.10;;;;;;5082837;28;19997;-82
2022/04/13 07:09:29;;;;;;;;;;;13.30;95.20;;;;;;5062738;28;19923;-82
2022/04/13 07:11:55;;;;;;;;;;;13.50;94.70;;;;;;5082613;28;19916;-82
2022/04/13 07:14:20;;;;;;;;;;;13.60;95.10;;;;;;5069767;28;19921;-82
2022/04/13 07:16:46;;;;;;;;;;;13.80;96.00;;;;;;5088880;28;19912;-82
2022/04/13 07:19:12;;;;;;;;;;;13.90;96.40;;;;;;5073188;28;19916;-82
2022/04/13 07:21:37;;;;;;;;;;;14.00;94.80;;;;;;5061794;28;20301;-82
2022/04/13 07:24:03;;;;;;;;;;;14.10;93.50;;;;;;5081239;28;19912;-82
2022/04/13 07:26:29;;;;;;;;;;;14.20;87.60;;;;;;5063684;28;19923;-82
2022/04/13 07:28:54;;;;;;;;;;;14.40;82.10;;;;;;5080886;28;20433;-82
2022/04/13 07:31:20;;;;;;;;;;;14.50;77.80;;;;;;5071069;28;19916;-82
2022/04/13 07:33:45;;;;;;;;;;;14.70;73.20;;;;;;5064448;28;20141;-82
2022/04/13 07:36:12;;;;;;;;;;;14.80;68.60;;;;;;5062693;28;19978;-82
2022/04/13 07:38:37;;;;;;;;;;;14.90;66.50;;;;;;5085728;28;19913;-82
2022/04/13 07:41:06;;;;;;;;;;;15.10;65.90;;;;;;5078670;28;19912;-82
2022/04/13 07:43:31;;;;;;;;;;;15.20;67.30;;;;;;5062692;28;19967;-82
2022/04/13 07:45:57;;;;;;;;;;;15.30;69.70;;;;;;5065866;28;19951;-82
2022/04/13 07:48:23;;;;;;;;;;;15.30;64.80;;;;;;5084087;22;19939;-84
2022/04/13 07:50:48;;;;;;;;;;;15.40;65.40;;;;;;5077940;28;19925;-84
2022/04/13 07:53:14;;;;;;;;;;;15.50;71.30;;;;;;5080755;28;19943;-84
2022/04/13 07:55:39;;;;;;;;;;;15.50;66.50;;;;;;5079921;28;19921;-84
2022/04/13 07:58:05;;;;;;;;;;;15.60;69.70;;;;;;5045212;28;20344;-83
2022/04/13 08:00:30;;;;;;;;;;;15.70;69.50;;;;;;5055983;28;19913;-83
2022/04/13 08:02:56;;;;;;;;;;;15.90;72.70;;;;;;5040220;28;19917;-83
2022/04/13 08:05:22;;;;;;;;;;;16.00;74.40;;;;;;5052949;28;20027;-83
2022/04/13 08:07:47;;;;;;;;;;;16.10;72.80;;;;;;5057311;28;19917;-83
2022/04/13 08:10:13;;;;;;;;;;;16.30;67.50;;;;;;5033353;28;19917;-83
2022/04/13 08:12:40;;;;;;;;;;;16.40;63.90;;;;;;5067518;28;20400;-83
2022/04/13 08:15:06;;;;;;;;;;;16.50;62.80;;;;;;5062904;28;20277;-83
2022/04/13 08:17:31;;;;;;;;;;;16.60;64.60;;;;;;5053119;28;19921;-84
2022/04/13 08:19:57;;;;;;;;;;;16.70;65.90;;;;;;5035287;28;19929;-83
2022/04/13 08:22:23;;;;;;;;;;;16.80;62.60;;;;;;5058402;28;19923;-83
2022/04/13 08:24:49;;;;;;;;;;;16.80;58.80;;;;;;5057499;28;20395;-83
2022/04/13 08:27:14;;;;;;;;;;;16.80;58.30;;;;;;5063427;28;20003;-84
2022/04/13 08:29:40;;;;;;;;;;;16.90;58.70;;;;;;5057832;28;19950;-84
2022/04/13 08:32:05;;;;;;;;;;;16.90;59.40;;;;;;5059403;28;19920;-83
2022/04/13 08:34:31;;;;;;;;;;;16.90;58.20;;;;;;5069980;28;20338;-84
2022/04/13 08:36:56;;;;;;;;;;;16.90;56.60;;;;;;5061417;28;19963;-84
2022/04/13 08:39:22;;;;;;;;;;;16.90;56.30;;;;;;5064139;28;20454;-83
2022/04/13 08:41:52;;;;;;;;;;;16.90;55.80;;;;;;5043055;28;19924;-83
2022/04/13 08:44:38;;;;;;;;;;;16.90;54.80;;;;;;5062327;28;20027;-84
2022/04/13 08:47:06;;;;;;;;;;;17.00;55.60;;;;;;5056842;28;19995;-83
2022/04/13 08:49:33;;;;;;;;;;;17.10;56.90;;;;;;5056753;28;20023;-83
2022/04/13 08:52:09;;;;;;;;;;;17.30;56.50;;;;;;5051775;28;19909;-83
2022/04/13 08:54:44;;;;;;;;;;;17.30;53.70;;;;;;5033861;28;19964;-83
2022/04/13 08:57:11;;;;;;;;;;;17.40;53.50;;;;;;5062969;28;19919;-83
2022/04/13 08:59:55;;;;;;;;;;;17.60;54.20;;;;;;5049012;28;20011;-84
2022/04/13 09:02:21;;;;;;;;;;;17.70;52.50;;;;;;5058318;28;20482;-84
2022/04/13 09:04:47;;;;;;;;;;;17.70;51.30;;;;;;5060522;28;20452;-84
2022/04/13 09:07:13;;;;;;;;;;;17.80;52.80;;;;;;5063706;28;20277;-84
2022/04/13 09:09:44;;;;;;;;;;;17.90;53.30;;;;;;5061936;28;19963;-83
2022/04/13 09:12:10;;;;;;;;;;;18.00;51.80;;;;;;5060671;28;19913;-84
2022/04/13 09:14:37;;;;;;;;;;;18.00;52.60;;;;;;5054463;28;20446;-84
2022/04/13 09:17:04;;;;;;;;;;;17.90;52.90;;;;;;5062657;28;20011;-84
2022/04/13 09:19:29;;;;;;;;;;;17.80;53.00;;;;;;5060694;28;20293;-83
2022/04/13 09:21:55;;;;;;;;;;;17.60;52.90;;;;;;5065215;28;19943;-84
2022/04/13 09:24:21;;;;;;;;;;;17.40;52.10;;;;;;5059318;28;19923;-84
2022/04/13 09:26:47;;;;;;;;;;;17.30;52.20;;;;;;5063707;28;19908;-83
2022/04/13 09:29:12;;;;;;;;;;;17.30;52.80;;;;;;5050415;28;20352;-83
2022/04/13 09:31:39;;;;;;;;;;;17.20;54.10;;;;;;5053945;28;20282;-84
2022/04/13 09:34:04;;;;;;;;;;;17.20;53.00;;;;;;5069511;28;20475;-84
2022/04/13 09:36:30;;;;;;;;;;;17.20;52.20;;;;;;5054787;28;20401;-83
2022/04/13 09:38:56;;;;;;;;;;;17.20;53.10;;;;;;5056932;28;19935;-84
2022/04/13 09:41:31;;;;;;;;;;;17.20;53.20;;;;;;5062476;28;19920;-84
2022/04/13 09:43:57;;;;;;;;;;;17.20;52.60;;;;;;5057939;28;19913;-84
2022/04/13 09:46:27;;;;;;;;;;;17.30;52.20;;;;;;5071785;28;20299;-84
2022/04/13 09:49:08;;;;;;;;;;;17.50;52.30;;;;;;5067286;28;19951;-84
2022/04/13 09:51:35;;;;;;;;;;;17.70;51.90;;;;;;5057198;28;19928;-84
2022/04/13 09:54:04;;;;;;;;;;;17.90;51.50;;;;;;5061728;28;19944;-84
2022/04/13 09:56:29;;;;;;;;;;;18.10;52.10;;;;;;5065248;28;20369;-83
2022/04/13 09:58:55;;;;;;;;;;;18.40;53.00;;;;;;5058116;28;19918;-84
2022/04/13 10:01:20;;;;;;;;;;;18.60;54.50;;;;;;5065218;28;19917;-84
2022/04/13 10:03:55;;;;;;;;;;;18.70;53.40;;;;;;5063434;28;19913;-84
2022/04/13 10:06:28;;;;;;;;;;;18.80;53.80;;;;;;5062549;28;19971;-84
2022/04/13 10:09:04;;;;;;;;;;;18.80;52.20;;;;;;5061967;28;19913;-84
2022/04/13 10:11:30;;;;;;;;;;;18.90;51.60;;;;;;5070945;28;19923;-84
2022/04/13 10:13:55;;;;;;;;;;;18.90;54.70;;;;;;5058913;28;20307;-84
2022/04/13 10:16:22;;;;;;;;;;;18.90;51.90;;;;;;5068023;28;19924;-84
2022/04/13 10:18:51;;;;;;;;;;;18.80;49.80;;;;;;5056653;28;19916;-84
2022/04/13 10:21:35;;;;;;;;;;;18.70;50.60;;;;;;5067920;28;19956;-84
2022/04/13 10:24:01;;;;;;;;;;;18.60;52.10;;;;;;5064998;28;20071;-84
2022/04/13 10:26:27;;;;;;;;;;;18.50;51.00;;;;;;5060428;28;19979;-84
2022/04/13 10:28:52;;;;;;;;;;;18.50;50.80;;;;;;5062539;28;19917;-84
2022/04/13 10:31:18;;;;;;;;;;;18.50;50.80;;;;;;5045861;28;20011;-84
2022/04/13 10:33:49;;;;;;;;;;;18.60;50.70;;;;;;5069383;28;20366;-83
2022/04/13 10:36:19;;;;;;;;;;;18.70;51.40;;;;;;5080138;28;19924;-83
2022/04/13 10:38:44;;;;;;;;;;;18.70;52.10;;;;;;5065330;28;19924;-84
2022/04/13 10:41:17;;;;;;;;;;;18.80;53.10;;;;;;5061079;28;19913;-84
2022/04/13 10:43:46;;;;;;;;;;;19.00;53.70;;;;;;5066327;28;20019;-84
2022/04/13 10:46:14;;;;;;;;;;;19.30;52.80;;;;;;5066507;28;20304;-84
2022/04/13 10:48:43;;;;;;;;;;;19.80;51.40;;;;;;5066176;28;20292;-84
2022/04/13 10:51:12;;;;;;;;;;;20.20;48.70;;;;;;5072350;28;19916;-84
2022/04/13 10:53:52;;;;;;;;;;;20.60;47.60;;;;;;5076188;28;19962;-84
2022/04/13 10:56:19;;;;;;;;;;;21.10;47.50;;;;;;5069521;28;20017;-85
2022/04/13 10:58:50;;;;;;;;;;;21.30;45.90;;;;;;5061906;28;19921;-84
2022/04/13 11:01:18;;;;;;;;;;;21.40;44.90;;;;;;5058591;28;19913;-82
2022/04/13 11:03:43;;;;;;;;;;;21.60;46.20;;;;;;5065623;28;20010;-83
2022/04/13 11:06:10;;;;;;;;;;;21.70;45.10;;;;;;5059682;28;19948;-83
2022/04/13 11:08:54;;;;;;;;;;;21.60;44.50;;;;;;5056699;28;20016;-82
2022/04/13 11:11:23;;;;;;;;;;;21.70;46.70;;;;;;5067557;28;19975;-83
2022/04/13 11:13:49;;;;;;;;;;;21.70;45.60;;;;;;5056414;28;20309;-82
2022/04/13 11:16:16;;;;;;;;;;;21.60;45.50;;;;;;5061070;28;19966;-83
2022/04/13 11:18:42;;;;;;;;;;;21.50;45.00;;;;;;5062176;28;20352;-83
2022/04/13 11:21:08;;;;;;;;;;;21.40;45.20;;;;;;5054170;28;19924;-83
2022/04/13 11:23:43;;;;;;;;;;;21.20;44.50;;;;;;5042115;28;19924;-83
2022/04/13 11:26:08;;;;;;;;;;;21.00;46.00;;;;;;5060048;28;19939;-83
2022/04/13 11:28:35;;;;;;;;;;;21.00;46.50;;;;;;5042428;28;19917;-83
2022/04/13 11:31:06;;;;;;;;;;;21.10;47.40;;;;;;5061890;28;19913;-83
2022/04/13 11:33:47;;;;;;;;;;;21.20;47.10;;;;;;5059041;28;20463;-83
2022/04/13 11:36:13;;;;;;;;;;;21.30;47.20;;;;;;5053591;28;19924;-83
2022/04/13 11:38:45;;;;;;;;;;;21.50;46.50;;;;;;5041139;28;19917;-83
2022/04/13 11:41:11;;;;;;;;;;;21.60;45.10;;;;;;5059589;28;20396;-82
2022/04/13 11:43:39;;;;;;;;;;;21.60;43.90;;;;;;5049465;28;19923;-83
2022/04/13 11:46:04;;;;;;;;;;;21.70;44.50;;;;;;5065275;28;20398;-83
2022/04/13 11:48:34;;;;;;;;;;;21.80;46.00;;;;;;5058709;28;19920;-83
2022/04/13 11:51:35;;;;;;;;;;;21.80;43.80;;;;;;5060215;28;20410;-83
2022/04/13 11:54:13;;;;;;;;;;;21.90;43.70;;;;;;5008973;28;20305;-83
2022/04/13 11:56:51;;;;;;;;;;;21.90;45.40;;;;;;5056751;28;19936;-83
2022/04/13 11:59:37;;;;;;;;;;;22.00;42.90;;;;;;5040966;28;20233;-83
2022/04/13 12:02:05;;;;;;;;;;;22.00;44.00;;;;;;5052496;28;20432;-83
2022/04/13 12:04:32;;;;;;;;;;;22.10;45.40;;;;;;5058409;28;20207;-83
2022/04/13 12:06:58;;;;;;;;;;;22.10;45.10;;;;;;5039949;28;19921;-82
2022/04/13 12:09:24;;;;;;;;;;;22.20;44.10;;;;;;5062477;28;19909;-83
2022/04/13 12:11:52;;;;;;;;;;;22.20;45.30;;;;;;5042057;28;19920;-83
2022/04/13 12:14:27;;;;;;;;;;;22.10;42.70;;;;;;5045715;28;19917;-82
2022/04/13 12:16:55;;;;;;;;;;;22.20;44.00;;;;;;5054883;28;19977;-83
2022/04/13 12:19:21;;;;;;;;;;;22.30;44.10;;;;;;5054593;28;19915;-83
2022/04/13 12:21:46;;;;;;;;;;;22.40;43.10;;;;;;5052182;28;19917;-83
2022/04/13 12:24:12;;;;;;;;;;;22.50;44.80;;;;;;5062895;28;19917;-83
2022/04/13 12:26:41;;;;;;;;;;;22.60;43.30;;;;;;5060944;28;19912;-83
2022/04/13 12:29:20;;;;;;;;;;;22.60;43.40;;;;;;5056290;28;19959;-83
2022/04/13 12:31:51;;;;;;;;;;;22.70;43.70;;;;;;5057622;28;19909;-83
2022/04/13 12:34:20;;;;;;;;;;;22.80;43.40;;;;;;5054819;28;19917;-83
2022/04/13 12:36:55;;;;;;;;;;;22.90;44.50;;;;;;5059855;28;19921;-83
2022/04/13 12:39:27;;;;;;;;;;;23.00;43.60;;;;;;5062450;28;19951;-83
2022/04/13 12:41:53;;;;;;;;;;;23.00;40.80;;;;;;5052528;28;19909;-83
2022/04/13 12:44:19;;;;;;;;;;;23.00;43.00;;;;;;5063377;28;19917;-83
2022/04/13 12:46:44;;;;;;;;;;;23.10;43.90;;;;;;5056991;28;19924;-83
2022/04/13 12:49:17;;;;;;;;;;;23.20;42.50;;;;;;5064235;28;20384;-83
2022/04/13 12:51:42;;;;;;;;;;;23.20;43.40;;;;;;5053389;28;20340;-83
2022/04/13 12:54:08;;;;;;;;;;;23.30;41.70;;;;;;5046779;28;19924;-83
2022/04/13 12:56:56;;;;;;;;;;;23.40;41.10;;;;;;5065221;28;19983;-83
2022/04/13 12:59:22;;;;;;;;;;;23.40;40.60;;;;;;5055607;28;19916;-83
2022/04/13 13:01:50;;;;;;;;;;;23.40;39.80;;;;;;5058140;28;19984;-83
2022/04/13 13:04:16;;;;;;;;;;;23.20;39.70;;;;;;5056459;28;19912;-83
2022/04/13 13:07:01;;;;;;;;;;;23.20;41.10;;;;;;5065001;28;20367;-82
2022/04/13 13:09:30;;;;;;;;;;;23.20;42.30;;;;;;5055185;28;19912;-82
2022/04/13 13:11:57;;;;;;;;;;;23.20;42.50;;;;;;5040180;28;19924;-83
2022/04/13 13:14:30;;;;;;;;;;;23.30;42.40;;;;;;5058668;28;19963;-83
2022/04/13 13:16:56;;;;;;;;;;;23.20;41.40;;;;;;5066489;28;20315;-83
2022/04/13 13:19:23;;;;;;;;;;;23.20;41.50;;;;;;5044546;28;19925;-83
2022/04/13 13:22:08;;;;;;;;;;;23.10;40.50;;;;;;5061570;28;20007;-83
2022/04/13 13:24:34;;;;;;;;;;;23.20;39.60;;;;;;5061433;28;19916;-83
2022/04/13 13:27:03;;;;;;;;;;;23.30;41.00;;;;;;5046692;28;19962;-82
2022/04/13 13:29:29;;;;;;;;;;;23.50;40.10;;;;;;5068166;28;19920;-83
2022/04/13 13:31:54;;;;;;;;;;;23.60;39.20;;;;;;5047439;28;19929;-83
2022/04/13 13:34:21;;;;;;;;;;;23.70;39.20;;;;;;5054595;28;19919;-84
2022/04/13 13:36:56;;;;;;;;;;;23.80;40.00;;;;;;5055864;28;19998;-83
2022/04/13 13:39:28;;;;;;;;;;;23.80;40.00;;;;;;5052777;28;19916;-84
2022/04/13 13:42:03;;;;;;;;;;;24.00;40.20;;;;;;5052644;28;19920;-84
2022/04/13 13:44:29;;;;;;;;;;;24.00;39.40;;;;;;5036020;28;19920;-84
2022/04/13 13:46:54;;;;;;;;;;;24.00;40.00;;;;;;5053894;28;19917;-84
2022/04/13 13:49:20;;;;;;;;;;;24.00;37.70;;;;;;5056539;28;19943;-86
2022/04/13 13:51:48;;;;;;;;;;;24.00;38.80;;;;;;5039747;28;19917;-85
2022/04/13 13:54:13;;;;;;;;;;;24.00;42.10;;;;;;5040242;28;20460;-86
2022/04/13 13:56:39;;;;;;;;;;;23.90;44.30;;;;;;5056193;28;19960;-86
2022/04/13 13:59:04;;;;;;;;;;;24.00;39.20;;;;;;5056530;28;19940;-86
2022/04/13 14:01:30;;;;;;;;;;;24.00;39.10;;;;;;5040395;28;19913;-86
2022/04/13 14:03:55;;;;;;;;;;;24.10;39.50;;;;;;5056671;28;19916;-86
2022/04/13 14:06:21;;;;;;;;;;;24.00;38.40;;;;;;5056937;28;19921;-86
2022/04/13 14:08:49;;;;;;;;;;;24.00;36.40;;;;;;5056986;28;19909;-85
2022/04/13 14:11:14;;;;;;;;;;;24.00;39.90;;;;;;5061913;28;19940;-85
2022/04/13 14:13:40;;;;;;;;;;;24.00;39.00;;;;;;5036669;28;19920;-85
2022/04/13 14:16:05;;;;;;;;;;;24.00;42.00;;;;;;5036101;28;19963;-85
2022/04/13 14:18:31;;;;;;;;;;;24.00;37.10;;;;;;5052585;28;20445;-85